Terminal Aerodrome Forecast
Issued by NWS

Home | Current Version | Previous Version | Text Only | Print | Product List | Glossary On
Versions: 1 2 3 4 5 6 7 8 9 10 11 12 13 14 15 16 17 18 19 20 21
000
FTUS41 KCAR 242033 AAA
TAFFVE
TAF AMD
KFVE 242033Z 2421/2518 21015G25KT P6SM OVC035
     FM250400 27006KT P6SM BKN030
     FM251000 31009KT P6SM BKN250=

USA.gov is the U.S. government's official web portal to all federal, state and local government web resources and services.